createdAt,value
2022-10-03T00:01:16.121Z,7.60
2022-10-03T00:03:37.291Z,7.60
2022-10-03T00:05:58.676Z,7.60
2022-10-03T00:08:18.637Z,7.60
2022-10-03T00:10:35.752Z,7.50
2022-10-03T00:13:02.188Z,7.50
2022-10-03T00:15:14.418Z,7.60
2022-10-03T00:17:27.831Z,7.60
2022-10-03T00:19:45.091Z,7.60
2022-10-03T00:22:05.568Z,7.40
2022-10-03T00:24:26.562Z,7.40
2022-10-03T00:26:47.782Z,7.40
2022-10-03T00:29:05.944Z,7.40
2022-10-03T00:31:16.709Z,7.40
2022-10-03T00:33:38.419Z,7.20
2022-10-03T00:36:03.527Z,7.20
2022-10-03T00:38:28.784Z,7.30
2022-10-03T00:41:25.438Z,7.20
2022-10-03T00:44:19.630Z,7.20
2022-10-03T00:46:53.882Z,7.20
2022-10-03T00:50:03.332Z,7.30
2022-10-03T00:52:45.273Z,7.30
2022-10-03T00:55:07.771Z,7.10
2022-10-03T00:57:32.689Z,7.00
2022-10-03T01:00:08.424Z,6.90
2022-10-03T01:02:38.197Z,6.80
2022-10-03T01:04:58.390Z,7.00
2022-10-03T01:07:23.091Z,7.00
2022-10-03T01:09:53.486Z,7.10
2022-10-03T01:12:34.812Z,7.10
2022-10-03T01:15:08.779Z,7.10
2022-10-03T01:17:22.334Z,7.10
2022-10-03T01:19:58.665Z,7.10
2022-10-03T01:22:35.618Z,7.00
2022-10-03T01:25:09.741Z,7.00
2022-10-03T01:27:19.755Z,6.50
2022-10-03T01:29:52.552Z,6.40
2022-10-03T01:32:07.168Z,6.10
2022-10-03T01:34:25.238Z,6.30
2022-10-03T01:36:35.900Z,6.20
2022-10-03T01:38:50.688Z,6.20
2022-10-03T01:41:05.364Z,6.30
2022-10-03T01:43:21.227Z,6.50
2022-10-03T01:45:41.519Z,6.40
2022-10-03T01:47:52.329Z,6.10
2022-10-03T01:50:08.708Z,6.00
2022-10-03T01:52:22.263Z,6.00
2022-10-03T01:54:40.974Z,6.20
2022-10-03T01:56:55.354Z,6.10
2022-10-03T01:59:08.461Z,5.90
2022-10-03T02:01:26.991Z,6.00
2022-10-03T02:03:40.641Z,6.20
2022-10-03T02:05:57.771Z,6.20
2022-10-03T02:08:08.320Z,6.20
2022-10-03T02:10:31.165Z,6.40
2022-10-03T02:12:43.023Z,6.50
2022-10-03T02:15:01.020Z,6.50
2022-10-03T02:17:16.540Z,6.50
2022-10-03T02:19:31.016Z,6.60
2022-10-03T02:21:48.244Z,6.30
2022-10-03T02:24:11.586Z,6.10
2022-10-03T02:27:08.175Z,5.90
2022-10-03T02:30:06.569Z,5.90
2022-10-03T02:33:01.876Z,6.20
2022-10-03T02:35:30.105Z,6.40
2022-10-03T02:38:03.031Z,6.40
2022-10-03T02:41:05.555Z,6.20
2022-10-03T02:46:42.853Z,6.00
2022-10-03T02:49:38.041Z,6.00
2022-10-03T02:52:25.043Z,6.10
2022-10-03T02:55:01.802Z,6.40
2022-10-03T02:58:02.139Z,6.40
2022-10-03T03:00:15.512Z,6.10
2022-10-03T03:03:05.285Z,6.20
2022-10-03T03:05:51.577Z,6.40
2022-10-03T03:08:33.820Z,6.30
2022-10-03T03:11:09.972Z,6.20
2022-10-03T03:13:55.594Z,6.10
2022-10-03T03:16:55.851Z,6.10
2022-10-03T03:19:21.410Z,6.20
2022-10-03T03:21:43.113Z,6.20
2022-10-03T03:24:24.382Z,5.90
2022-10-03T03:27:13.420Z,5.90
2022-10-03T03:29:33.943Z,6.00
2022-10-03T03:31:47.375Z,6.00
2022-10-03T03:34:07.203Z,6.10
2022-10-03T03:36:22.115Z,6.00
2022-10-03T03:38:43.788Z,5.70
2022-10-03T03:41:05.505Z,5.70
2022-10-03T03:43:39.324Z,5.50
2022-10-03T03:46:06.605Z,5.80
2022-10-03T03:48:39.734Z,5.90
2022-10-03T03:51:12.133Z,6.00
2022-10-03T03:53:57.125Z,5.80
2022-10-03T03:56:37.442Z,5.60
2022-10-03T03:58:51.445Z,5.30
2022-10-03T04:01:41.586Z,5.20
2022-10-03T04:04:02.329Z,5.50
2022-10-03T04:06:39.244Z,5.60
2022-10-03T04:09:17.068Z,5.80
2022-10-03T04:11:30.362Z,5.80
2022-10-03T04:13:56.779Z,5.80
2022-10-03T04:16:43.900Z,5.90
2022-10-03T04:19:04.373Z,5.80
2022-10-03T04:21:42.415Z,5.50
2022-10-03T04:24:08.626Z,5.50
2022-10-03T04:26:32.212Z,5.30
2022-10-03T04:29:34.717Z,5.20
2022-10-03T04:31:54.871Z,5.20
2022-10-03T04:34:19.094Z,5.00
2022-10-03T04:37:01.596Z,5.30
2022-10-03T04:39:19.715Z,5.10
2022-10-03T04:41:42.222Z,5.20
2022-10-03T04:43:58.528Z,5.30
2022-10-03T04:46:27.347Z,5.20
2022-10-03T04:48:41.662Z,5.40
2022-10-03T04:51:03.450Z,5.30
2022-10-03T04:53:40.953Z,5.30
2022-10-03T04:55:55.852Z,5.30
2022-10-03T04:58:10.356Z,5.40
2022-10-03T05:00:30.029Z,5.50
2022-10-03T05:02:48.966Z,5.40
2022-10-03T05:05:29.566Z,5.40
2022-10-03T05:07:42.690Z,5.50
2022-10-03T05:09:55.862Z,5.60
2022-10-03T05:12:17.966Z,5.60
2022-10-03T05:14:48.545Z,5.60
2022-10-03T05:17:06.616Z,5.60
2022-10-03T05:19:47.611Z,5.70
2022-10-03T05:22:00.564Z,5.70
2022-10-03T05:24:22.101Z,5.60
2022-10-03T05:26:50.644Z,5.60
2022-10-03T05:29:10.077Z,5.50
2022-10-03T05:31:33.755Z,5.30
2022-10-03T05:33:49.637Z,5.30
2022-10-03T05:36:18.767Z,5.20
2022-10-03T05:39:01.806Z,5.00
2022-10-03T05:41:13.515Z,5.00
2022-10-03T05:43:36.373Z,5.10
2022-10-03T05:45:57.595Z,5.20
2022-10-03T05:48:21.756Z,5.20
2022-10-03T05:50:59.167Z,5.30
2022-10-03T05:53:36.510Z,5.10
2022-10-03T05:55:49.052Z,5.30
2022-10-03T05:58:55.190Z,5.60
2022-10-03T06:01:47.530Z,5.70
2022-10-03T06:04:40.837Z,5.70
2022-10-03T06:07:08.119Z,5.90
2022-10-03T06:10:11.663Z,5.90
2022-10-03T06:12:23.034Z,6.00
2022-10-03T06:14:39.304Z,6.00
2022-10-03T06:17:02.105Z,5.90
2022-10-03T06:19:19.512Z,6.00
2022-10-03T06:21:46.534Z,6.10
2022-10-03T06:24:16.284Z,6.20
2022-10-03T06:27:03.758Z,6.20
2022-10-03T06:30:11.717Z,6.30
2022-10-03T06:33:15.034Z,6.40
2022-10-03T06:36:05.979Z,6.60
2022-10-03T06:38:55.910Z,6.60
2022-10-03T06:41:44.282Z,6.70
2022-10-03T06:44:24.076Z,6.80
2022-10-03T06:47:06.420Z,6.90
2022-10-03T06:49:38.529Z,7.00
2022-10-03T06:52:36.167Z,7.20
2022-10-03T06:55:36.392Z,7.30
2022-10-03T06:58:27.786Z,7.40
2022-10-03T07:00:56.478Z,7.50
2022-10-03T07:03:50.398Z,7.50
2022-10-03T07:06:48.527Z,7.60
2022-10-03T07:10:01.563Z,7.70
2022-10-03T07:12:56.688Z,7.80
2022-10-03T07:15:50.149Z,7.90
2022-10-03T07:18:29.806Z,8.00
2022-10-03T07:21:31.229Z,8.10
2022-10-03T07:24:03.819Z,8.20
2022-10-03T07:27:02.737Z,8.30
2022-10-03T07:29:26.560Z,8.40
2022-10-03T07:31:48.249Z,8.50
2022-10-03T07:34:25.333Z,8.50
2022-10-03T07:37:37.294Z,8.60
2022-10-03T07:40:11.304Z,8.70
2022-10-03T07:42:46.997Z,8.80
2022-10-03T07:45:34.216Z,8.90
2022-10-03T07:48:21.207Z,8.90
2022-10-03T07:50:53.551Z,9.00
2022-10-03T07:53:26.495Z,9.10
2022-10-03T07:56:07.360Z,9.10
2022-10-03T07:58:54.755Z,9.20
2022-10-03T08:01:28.058Z,9.30
2022-10-03T08:04:33.087Z,9.40
2022-10-03T08:06:44.924Z,9.40
2022-10-03T08:09:39.903Z,9.50
2022-10-03T08:12:40.825Z,9.60
2022-10-03T08:15:04.899Z,9.70
2022-10-03T08:17:49.875Z,9.70
2022-10-03T08:20:34.713Z,9.80
2022-10-03T08:22:57.144Z,9.80
2022-10-03T08:25:30.483Z,9.90
2022-10-03T08:28:03.370Z,10.00
2022-10-03T08:30:28.924Z,10.10
2022-10-03T08:33:20.112Z,10.10
2022-10-03T08:35:55.378Z,10.20
2022-10-03T08:38:40.043Z,10.30
2022-10-03T08:41:55.810Z,10.40
2022-10-03T08:44:39.920Z,10.50
2022-10-03T08:47:29.141Z,10.60
2022-10-03T08:50:29.788Z,10.70
2022-10-03T08:52:48.426Z,10.70
2022-10-03T08:55:42.874Z,10.80
2022-10-03T08:58:44.311Z,10.80
2022-10-03T09:01:29.546Z,10.90
2022-10-03T09:04:40.632Z,11.00
2022-10-03T09:07:17.984Z,11.00
2022-10-03T09:10:13.673Z,11.10
2022-10-03T09:12:49.353Z,11.20
2022-10-03T09:15:38.365Z,11.20
2022-10-03T09:18:26.780Z,11.30
2022-10-03T09:21:26.550Z,11.40
2022-10-03T09:24:14.336Z,11.30
2022-10-03T09:27:18.724Z,11.30
2022-10-03T09:29:54.953Z,11.40
2022-10-03T09:33:03.464Z,11.70
2022-10-03T09:35:57.788Z,11.70
2022-10-03T09:38:59.176Z,11.70
2022-10-03T09:41:40.005Z,11.90
2022-10-03T09:44:21.500Z,12.00
2022-10-03T09:47:13.916Z,12.10
2022-10-03T09:49:59.233Z,12.20
2022-10-03T09:52:34.952Z,12.20
2022-10-03T09:55:26.428Z,12.30
2022-10-03T09:58:05.275Z,12.50
2022-10-03T10:00:31.609Z,12.30
2022-10-03T10:03:26.460Z,12.40
2022-10-03T10:06:34.196Z,12.40
2022-10-03T10:09:35.901Z,12.40
2022-10-03T10:12:32.358Z,12.50
2022-10-03T10:15:16.512Z,12.50
2022-10-03T10:18:12.980Z,12.60
2022-10-03T10:20:47.966Z,12.60
2022-10-03T10:23:27.845Z,12.50
2022-10-03T10:26:11.971Z,12.40
2022-10-03T10:29:11.935Z,12.40
2022-10-03T10:32:21.984Z,12.40
2022-10-03T10:35:15.273Z,12.40
2022-10-03T10:37:57.352Z,12.50
2022-10-03T10:40:41.947Z,12.60
2022-10-03T10:43:46.532Z,12.60
2022-10-03T10:46:42.186Z,12.60
2022-10-03T10:49:38.597Z,12.80
2022-10-03T10:52:41.028Z,12.90
2022-10-03T10:55:46.303Z,12.90
2022-10-03T10:58:43.617Z,13.10
2022-10-03T11:01:21.908Z,13.30
2022-10-03T11:04:17.461Z,13.50
2022-10-03T11:07:14.712Z,13.40
2022-10-03T11:09:49.159Z,13.40
2022-10-03T11:12:51.620Z,13.60
2022-10-03T11:16:06.425Z,13.60
2022-10-03T11:18:50.418Z,13.70
2022-10-03T11:21:48.694Z,13.70
2022-10-03T11:24:30.612Z,13.70
2022-10-03T11:27:14.336Z,13.50
2022-10-03T11:30:06.274Z,13.50
2022-10-03T11:33:21.940Z,13.70
2022-10-03T11:36:29.973Z,14.10
2022-10-03T11:38:46.347Z,14.00
2022-10-03T11:41:06.770Z,14.10
2022-10-03T11:44:09.660Z,14.00
2022-10-03T11:46:42.423Z,14.00
2022-10-03T11:48:56.401Z,14.00
2022-10-03T11:51:06.126Z,14.00
2022-10-03T11:53:34.283Z,14.00
2022-10-03T11:55:45.082Z,14.10
2022-10-03T11:58:06.290Z,14.30
2022-10-03T12:00:20.168Z,14.40
2022-10-03T12:02:53.401Z,14.40
2022-10-03T12:05:04.319Z,14.50
2022-10-03T12:07:30.933Z,14.50
2022-10-03T12:09:50.250Z,14.60
2022-10-03T12:12:07.289Z,14.50
2022-10-03T12:14:29.204Z,14.70
2022-10-03T12:16:49.574Z,15.10
2022-10-03T12:19:06.326Z,15.00
2022-10-03T12:21:19.744Z,14.80
2022-10-03T12:23:44.741Z,14.90
2022-10-03T12:25:51.915Z,14.80
2022-10-03T12:28:20.866Z,14.80
2022-10-03T12:30:26.737Z,14.70
2022-10-03T12:32:45.430Z,14.70
2022-10-03T12:35:03.199Z,14.60
2022-10-03T12:37:47.099Z,14.40
2022-10-03T12:40:07.529Z,14.50
2022-10-03T12:42:31.112Z,14.50
2022-10-03T12:44:52.731Z,14.50
2022-10-03T12:47:21.526Z,14.40
2022-10-03T12:49:54.398Z,14.30
2022-10-03T12:52:02.880Z,14.30
2022-10-03T12:54:26.858Z,14.30
2022-10-03T12:56:44.852Z,14.30
2022-10-03T12:59:03.304Z,14.40
2022-10-03T13:01:22.185Z,14.40
2022-10-03T13:03:44.563Z,14.50
2022-10-03T13:06:50.964Z,14.40
2022-10-03T13:09:09.159Z,14.40
2022-10-03T13:11:36.644Z,14.40
2022-10-03T13:13:52.136Z,14.40
2022-10-03T13:16:21.155Z,14.50
2022-10-03T13:18:55.208Z,14.50
2022-10-03T13:21:27.140Z,14.40
2022-10-03T13:23:48.006Z,14.40
2022-10-03T13:26:00.827Z,14.40
2022-10-03T13:28:16.698Z,14.30
2022-10-03T13:30:25.902Z,14.30
2022-10-03T13:32:42.775Z,14.30
2022-10-03T13:35:39.077Z,14.30
2022-10-03T13:38:17.324Z,14.30
2022-10-03T13:40:23.120Z,14.50
2022-10-03T13:42:40.638Z,14.50
2022-10-03T13:44:54.534Z,14.50
2022-10-03T13:47:16.472Z,14.50
2022-10-03T13:49:33.184Z,14.60
2022-10-03T13:51:50.027Z,14.70
2022-10-03T13:54:05.098Z,14.70
2022-10-03T13:56:16.936Z,14.80
2022-10-03T13:58:40.015Z,14.80
2022-10-03T14:01:14.408Z,14.80
2022-10-03T14:03:34.138Z,14.80
2022-10-03T14:06:07.836Z,14.80
2022-10-03T14:08:29.828Z,14.80
2022-10-03T14:11:17.638Z,14.70
2022-10-03T14:13:33.391Z,14.60
2022-10-03T14:15:52.496Z,14.50
2022-10-03T14:18:09.593Z,14.40
2022-10-03T14:20:27.839Z,14.30
2022-10-03T14:22:51.958Z,14.40
2022-10-03T14:25:19.767Z,14.50
2022-10-03T14:27:47.210Z,14.60
2022-10-03T14:30:06.869Z,14.70
2022-10-03T14:32:46.392Z,14.70
2022-10-03T14:34:58.497Z,14.80
2022-10-03T14:37:18.775Z,14.80
2022-10-03T14:39:43.186Z,14.80
2022-10-03T14:42:12.355Z,14.60
2022-10-03T14:44:23.941Z,14.50
2022-10-03T14:46:35.061Z,14.50
2022-10-03T14:48:45.063Z,14.50
2022-10-03T14:50:55.002Z,14.50
2022-10-03T14:53:06.745Z,14.40
2022-10-03T14:55:17.819Z,14.40
2022-10-03T14:57:47.570Z,14.40
2022-10-03T14:59:59.798Z,14.40
2022-10-03T15:02:29.555Z,14.30
2022-10-03T15:04:38.249Z,14.20
2022-10-03T15:07:02.891Z,14.20
2022-10-03T15:09:14.899Z,14.20
2022-10-03T15:11:29.749Z,14.20
2022-10-03T15:13:42.363Z,14.20
2022-10-03T15:15:50.566Z,14.10
2022-10-03T15:18:00.548Z,14.10
2022-10-03T15:20:08.113Z,14.00
2022-10-03T15:22:30.938Z,14.00
2022-10-03T15:24:37.940Z,14.00
2022-10-03T15:26:54.174Z,14.00
2022-10-03T15:29:03.977Z,13.90
2022-10-03T15:31:15.381Z,13.90
2022-10-03T15:33:29.622Z,13.90
2022-10-03T15:35:37.818Z,13.90
2022-10-03T15:37:47.777Z,13.80
2022-10-03T15:39:54.351Z,13.80
2022-10-03T15:42:18.019Z,13.70
2022-10-03T15:44:34.147Z,13.60
2022-10-03T15:46:46.423Z,13.60
2022-10-03T15:48:56.154Z,13.60
2022-10-03T15:51:02.219Z,13.40
2022-10-03T15:53:34.896Z,13.30
2022-10-03T15:55:43.251Z,13.30
2022-10-03T15:57:55.336Z,13.30
2022-10-03T16:00:03.944Z,13.20
2022-10-03T16:02:22.294Z,13.20
2022-10-03T16:04:33.631Z,13.20
2022-10-03T16:06:50.259Z,13.30
2022-10-03T16:09:03.484Z,13.30
2022-10-03T16:11:15.541Z,13.20
2022-10-03T16:13:37.413Z,13.20
2022-10-03T16:16:06.109Z,13.30
2022-10-03T16:18:51.202Z,13.30
2022-10-03T16:21:01.477Z,13.10
2022-10-03T16:23:19.936Z,13.10
2022-10-03T16:25:30.156Z,13.00
2022-10-03T16:27:41.547Z,13.00
2022-10-03T16:29:59.946Z,13.10
2022-10-03T16:32:09.686Z,13.10
2022-10-03T16:34:18.719Z,13.10
2022-10-03T16:36:25.280Z,13.10
2022-10-03T16:38:37.435Z,13.10
2022-10-03T16:40:42.656Z,13.00
2022-10-03T16:42:50.713Z,13.00
2022-10-03T16:45:02.140Z,13.00
2022-10-03T16:47:09.512Z,13.00
2022-10-03T16:49:45.090Z,13.00
2022-10-03T16:52:00.675Z,12.90
2022-10-03T16:54:06.605Z,12.90
2022-10-03T16:56:18.447Z,12.80
2022-10-03T16:58:30.009Z,12.80
2022-10-03T17:01:22.004Z,12.70
2022-10-03T17:03:26.812Z,12.70
2022-10-03T17:05:39.531Z,12.70
2022-10-03T17:07:47.830Z,12.80
2022-10-03T17:09:55.797Z,12.80
2022-10-03T17:12:03.574Z,12.70
2022-10-03T17:14:12.333Z,12.70
2022-10-03T17:16:33.475Z,12.70
2022-10-03T17:18:44.700Z,12.70
2022-10-03T17:20:54.306Z,12.60
2022-10-03T17:23:03.665Z,12.70
2022-10-03T17:25:31.410Z,12.60
2022-10-03T17:27:42.347Z,12.60
2022-10-03T17:29:56.127Z,12.70
2022-10-03T17:32:06.193Z,12.70
2022-10-03T17:34:18.485Z,12.60
2022-10-03T17:36:56.019Z,12.60
2022-10-03T17:39:07.966Z,12.60
2022-10-03T17:41:22.162Z,12.50
2022-10-03T17:43:40.356Z,12.50
2022-10-03T17:45:53.413Z,12.60
2022-10-03T17:48:07.953Z,12.50
2022-10-03T17:50:20.858Z,12.50
2022-10-03T17:52:27.625Z,12.30
2022-10-03T17:54:39.135Z,12.30
2022-10-03T17:56:52.221Z,12.20
2022-10-03T17:59:05.890Z,12.30
2022-10-03T18:01:17.076Z,12.30
2022-10-03T18:03:32.183Z,12.30
2022-10-03T18:05:43.338Z,12.30
2022-10-03T18:07:51.243Z,12.30
2022-10-03T18:09:57.638Z,12.30
2022-10-03T18:12:17.659Z,12.30
2022-10-03T18:14:38.330Z,12.30
2022-10-03T18:16:54.842Z,12.20
2022-10-03T18:19:27.106Z,12.20
2022-10-03T18:21:53.947Z,12.20
2022-10-03T18:24:20.571Z,12.20
2022-10-03T18:26:32.534Z,12.20
2022-10-03T18:28:44.807Z,12.20
2022-10-03T18:30:55.213Z,12.20
2022-10-03T18:33:02.351Z,12.20
2022-10-03T18:35:18.340Z,12.10
2022-10-03T18:37:58.925Z,11.90
2022-10-03T18:40:08.461Z,11.70
2022-10-03T18:42:14.438Z,11.60
2022-10-03T18:44:28.942Z,11.50
2022-10-03T18:46:42.708Z,11.50
2022-10-03T18:49:31.759Z,11.40
2022-10-03T18:51:40.990Z,11.40
2022-10-03T18:53:52.124Z,11.40
2022-10-03T18:56:04.696Z,11.30
2022-10-03T18:58:22.172Z,11.30
2022-10-03T19:00:33.858Z,11.20
2022-10-03T19:02:44.427Z,11.20
2022-10-03T19:04:55.540Z,11.10
2022-10-03T19:07:12.467Z,11.10
2022-10-03T19:09:25.709Z,11.10
2022-10-03T19:11:37.031Z,11.10
2022-10-03T19:13:54.110Z,11.20
2022-10-03T19:16:18.106Z,11.20
2022-10-03T19:18:28.034Z,11.30
2022-10-03T19:20:39.497Z,11.30
2022-10-03T19:23:02.816Z,11.30
2022-10-03T19:25:20.740Z,11.20
2022-10-03T19:27:42.419Z,11.20
2022-10-03T19:29:52.685Z,11.20
2022-10-03T19:32:05.718Z,11.30
2022-10-03T19:34:22.590Z,11.20
2022-10-03T19:36:33.958Z,11.20
2022-10-03T19:38:46.157Z,11.10
2022-10-03T19:41:00.132Z,11.10
2022-10-03T19:43:43.067Z,10.70
2022-10-03T19:45:53.612Z,10.40
2022-10-03T19:48:06.933Z,10.60
2022-10-03T19:50:20.988Z,10.60
2022-10-03T19:52:31.184Z,10.70
2022-10-03T19:54:52.828Z,10.60
2022-10-03T19:56:59.472Z,10.60
2022-10-03T19:59:09.356Z,10.50
2022-10-03T20:01:16.890Z,10.40
2022-10-03T20:03:37.977Z,10.20
2022-10-03T20:05:53.544Z,10.10
2022-10-03T20:08:05.868Z,10.00
2022-10-03T20:10:53.896Z,9.90
2022-10-03T20:13:03.618Z,10.00
2022-10-03T20:15:23.019Z,10.10
2022-10-03T20:17:29.164Z,10.10
2022-10-03T20:19:57.116Z,10.20
2022-10-03T20:22:08.165Z,10.20
2022-10-03T20:24:21.438Z,10.10
2022-10-03T20:26:37.523Z,10.10
2022-10-03T20:29:19.844Z,10.00
2022-10-03T20:31:30.663Z,10.00
2022-10-03T20:33:38.428Z,10.00
2022-10-03T20:35:56.761Z,9.90
2022-10-03T20:38:10.828Z,9.80
2022-10-03T20:40:31.374Z,9.80
2022-10-03T20:42:46.854Z,9.60
2022-10-03T20:45:00.969Z,9.50
2022-10-03T20:47:12.935Z,9.60
2022-10-03T20:49:32.012Z,9.70
2022-10-03T20:51:47.079Z,9.70
2022-10-03T20:53:54.994Z,9.80
2022-10-03T20:56:03.114Z,9.80
2022-10-03T20:58:21.152Z,9.80
2022-10-03T21:00:27.686Z,9.80
2022-10-03T21:02:42.147Z,9.70
2022-10-03T21:04:57.427Z,9.40
2022-10-03T21:07:09.043Z,9.30
2022-10-03T21:09:23.012Z,9.30
2022-10-03T21:11:31.667Z,9.30
2022-10-03T21:13:46.809Z,9.40
2022-10-03T21:15:54.498Z,9.40
2022-10-03T21:18:00.214Z,9.40
2022-10-03T21:20:13.063Z,9.20
2022-10-03T21:22:22.602Z,9.00
2022-10-03T21:24:32.070Z,9.00
2022-10-03T21:26:45.715Z,8.90
2022-10-03T21:29:14.053Z,8.70
2022-10-03T21:31:36.543Z,8.80
2022-10-03T21:33:50.613Z,9.00
2022-10-03T21:35:57.481Z,9.10
2022-10-03T21:38:21.752Z,9.20
2022-10-03T21:40:49.338Z,9.10
2022-10-03T21:43:01.865Z,9.00
2022-10-03T21:45:25.069Z,9.10
2022-10-03T21:47:47.699Z,9.10
2022-10-03T21:50:00.482Z,9.00
2022-10-03T21:52:55.401Z,8.70
2022-10-03T21:55:29.845Z,8.30
2022-10-03T21:58:01.360Z,7.60
2022-10-03T22:00:16.984Z,7.70
2022-10-03T22:02:32.407Z,7.50
2022-10-03T22:04:49.312Z,7.60
2022-10-03T22:07:05.015Z,7.60
2022-10-03T22:09:18.160Z,7.70
2022-10-03T22:11:40.997Z,7.60
2022-10-03T22:14:09.856Z,7.40
2022-10-03T22:16:26.858Z,7.40
2022-10-03T22:18:44.105Z,7.40
2022-10-03T22:21:03.512Z,7.40
2022-10-03T22:23:24.215Z,7.30
2022-10-03T22:25:49.583Z,7.30
2022-10-03T22:28:02.942Z,7.40
2022-10-03T22:30:12.132Z,7.40
2022-10-03T22:32:27.952Z,7.50
2022-10-03T22:34:46.512Z,7.70
2022-10-03T22:36:54.721Z,7.80
2022-10-03T22:39:01.226Z,7.80
2022-10-03T22:41:12.934Z,7.90
2022-10-03T22:43:19.091Z,7.90
2022-10-03T22:45:29.314Z,8.00
2022-10-03T22:47:37.779Z,8.00
2022-10-03T22:49:46.295Z,8.00
2022-10-03T22:51:59.552Z,8.00
2022-10-03T22:54:12.025Z,7.90
2022-10-03T22:56:48.625Z,7.70
2022-10-03T22:58:54.584Z,7.60
2022-10-03T23:01:02.303Z,7.70
2022-10-03T23:03:16.118Z,7.80
2022-10-03T23:05:37.986Z,7.80
2022-10-03T23:08:04.917Z,7.80
2022-10-03T23:10:25.119Z,7.50
2022-10-03T23:12:39.933Z,7.40
2022-10-03T23:14:52.176Z,7.30
2022-10-03T23:17:08.652Z,7.00
2022-10-03T23:19:27.236Z,7.00
2022-10-03T23:21:34.352Z,7.00
2022-10-03T23:24:06.075Z,7.10
2022-10-03T23:26:48.325Z,7.30
2022-10-03T23:29:04.346Z,7.00
2022-10-03T23:31:09.386Z,7.00
2022-10-03T23:33:20.754Z,6.90
2022-10-03T23:35:41.895Z,7.00
2022-10-03T23:37:48.903Z,7.30
2022-10-03T23:40:42.099Z,7.20
2022-10-03T23:42:48.308Z,7.40
2022-10-03T23:44:57.780Z,7.40
2022-10-03T23:47:02.384Z,7.50
2022-10-03T23:49:09.469Z,7.50
2022-10-03T23:51:20.113Z,7.50
2022-10-03T23:53:34.248Z,7.50
2022-10-03T23:55:42.974Z,7.50
2022-10-03T23:57:48.344Z,7.50
2022-10-03T23:59:54.385Z,7.60
